createdAt,value
2022-12-29T00:02:49.545Z,0.60
2022-12-29T00:07:51.248Z,0.60
2022-12-29T00:13:31.278Z,0.50
2022-12-29T00:18:32.794Z,0.73
2022-12-29T00:23:55.985Z,0.50
2022-12-29T00:29:16.386Z,0.93
2022-12-29T00:34:38.521Z,0.60
2022-12-29T00:39:58.589Z,0.57
2022-12-29T00:45:00.459Z,0.70
2022-12-29T00:50:01.972Z,0.50
2022-12-29T00:55:03.743Z,0.43
2022-12-29T01:00:05.943Z,1.53
2022-12-29T01:05:09.324Z,0.80
2022-12-29T01:10:10.980Z,0.90
2022-12-29T01:15:14.416Z,0.70
2022-12-29T01:20:17.922Z,0.77
2022-12-29T01:25:19.851Z,0.47
2022-12-29T01:30:21.700Z,0.57
2022-12-29T01:35:23.288Z,0.50
2022-12-29T01:40:25.956Z,0.40
2022-12-29T01:45:27.551Z,0.40
2022-12-29T01:50:34.926Z,0.60
2022-12-29T01:55:41.623Z,0.60
2022-12-29T02:00:43.485Z,0.70
2022-12-29T02:05:56.345Z,0.57
2022-12-29T02:10:59.606Z,0.53
2022-12-29T02:16:04.930Z,0.97
2022-12-29T02:21:12.537Z,0.60
2022-12-29T02:26:23.880Z,0.50
2022-12-29T02:31:47.300Z,0.53
2022-12-29T02:37:30.374Z,1.07
2022-12-29T02:42:41.906Z,0.80
2022-12-29T02:48:11.980Z,0.73
2022-12-29T02:53:16.418Z,0.60
2022-12-29T02:58:22.532Z,0.60
2022-12-29T03:03:42.999Z,0.60
2022-12-29T03:09:19.042Z,0.60
2022-12-29T03:15:19.246Z,0.70
2022-12-29T03:20:33.560Z,0.60
2022-12-29T03:25:41.603Z,0.83
2022-12-29T03:30:46.270Z,0.70
2022-12-29T03:35:50.631Z,0.80
2022-12-29T03:40:58.055Z,0.70
2022-12-29T03:46:01.882Z,0.90
2022-12-29T03:51:03.719Z,0.60
2022-12-29T03:56:05.666Z,0.70
2022-12-29T04:01:08.535Z,0.80
2022-12-29T04:06:12.573Z,0.60
2022-12-29T04:11:28.438Z,0.60
2022-12-29T04:16:36.491Z,0.80
2022-12-29T04:21:39.312Z,0.67
2022-12-29T04:26:41.391Z,0.93
2022-12-29T04:31:59.489Z,0.87
2022-12-29T04:37:02.019Z,1.20
2022-12-29T04:42:04.304Z,0.60
2022-12-29T04:47:07.836Z,0.43
2022-12-29T04:52:35.662Z,0.70
2022-12-29T04:57:38.148Z,0.70
2022-12-29T05:02:42.266Z,0.70
2022-12-29T05:07:44.188Z,0.60
2022-12-29T05:12:46.136Z,0.90
2022-12-29T05:17:49.020Z,0.80
2022-12-29T05:22:51.317Z,0.67
2022-12-29T05:27:52.971Z,0.80
2022-12-29T05:33:02.417Z,0.87
2022-12-29T05:38:04.135Z,0.70
2022-12-29T05:43:05.839Z,0.80
2022-12-29T05:48:14.079Z,1.30
2022-12-29T05:53:43.008Z,0.80
2022-12-29T05:58:44.898Z,0.70
2022-12-29T06:03:48.469Z,0.70
2022-12-29T06:08:51.438Z,0.70
2022-12-29T06:13:54.064Z,0.90
2022-12-29T06:18:55.913Z,0.90
2022-12-29T06:23:57.473Z,0.90
2022-12-29T06:29:00.209Z,1.37
2022-12-29T06:34:06.572Z,0.80
2022-12-29T06:39:10.973Z,0.90
2022-12-29T06:44:13.249Z,1.10
2022-12-29T06:49:35.769Z,1.43
2022-12-29T06:54:38.200Z,1.10
2022-12-29T06:59:40.242Z,0.90
2022-12-29T07:04:41.733Z,0.90
2022-12-29T07:09:43.289Z,1.03
2022-12-29T07:14:44.878Z,0.60
2022-12-29T07:19:46.565Z,0.70
2022-12-29T07:24:48.179Z,0.60
2022-12-29T07:29:49.737Z,0.50
2022-12-29T07:34:51.224Z,0.63
2022-12-29T07:39:52.878Z,0.70
2022-12-29T07:44:55.246Z,1.17
2022-12-29T07:50:10.270Z,0.90
2022-12-29T07:55:12.113Z,1.53
2022-12-29T08:00:14.855Z,0.60
2022-12-29T08:05:16.627Z,1.50
2022-12-29T08:10:18.493Z,0.77
2022-12-29T08:15:19.992Z,0.60
2022-12-29T08:20:21.556Z,0.73
2022-12-29T08:25:24.296Z,0.90
2022-12-29T08:30:25.898Z,0.80
2022-12-29T08:35:27.590Z,0.70
2022-12-29T08:40:29.720Z,1.20
2022-12-29T08:45:31.343Z,0.60
2022-12-29T08:50:32.943Z,1.27
2022-12-29T08:55:34.457Z,0.90
2022-12-29T09:00:36.689Z,1.23
2022-12-29T09:05:38.347Z,0.80
2022-12-29T09:10:40.729Z,0.80
2022-12-29T09:15:42.311Z,0.77
2022-12-29T09:20:43.922Z,2.70
2022-12-29T09:25:45.559Z,1.33
2022-12-29T09:30:47.318Z,0.60
2022-12-29T09:35:57.535Z,1.13
2022-12-29T09:41:02.937Z,1.40
2022-12-29T09:46:30.614Z,4.40
2022-12-29T09:51:32.354Z,2.67
2022-12-29T09:56:34.118Z,2.87
2022-12-29T10:01:45.813Z,1.50
2022-12-29T10:07:29.297Z,2.77
2022-12-29T10:12:55.324Z,1.97
2022-12-29T10:18:05.223Z,3.50
2022-12-29T10:23:25.764Z,1.27
2022-12-29T10:28:51.762Z,2.57
2022-12-29T10:33:59.181Z,2.53
2022-12-29T10:39:21.371Z,0.97
2022-12-29T10:44:23.480Z,4.00
2022-12-29T10:49:27.474Z,1.00
2022-12-29T10:54:34.835Z,0.80
2022-12-29T10:59:37.628Z,2.67
2022-12-29T11:05:05.861Z,2.37
2022-12-29T11:10:17.527Z,0.80
2022-12-29T11:15:19.183Z,3.77
2022-12-29T11:20:50.868Z,1.13
2022-12-29T11:26:20.917Z,1.77
2022-12-29T11:31:22.971Z,2.10
2022-12-29T11:36:25.556Z,1.43
2022-12-29T11:41:29.339Z,2.30
2022-12-29T11:46:33.653Z,2.30
2022-12-29T11:51:46.144Z,4.13
2022-12-29T11:56:48.019Z,1.43
2022-12-29T12:01:49.696Z,0.80
2022-12-29T12:07:13.462Z,1.30
2022-12-29T12:12:25.732Z,1.90
2022-12-29T12:17:38.423Z,1.13
2022-12-29T12:22:44.038Z,3.33
2022-12-29T12:27:57.769Z,3.80
2022-12-29T12:33:23.993Z,3.30
2022-12-29T12:38:41.147Z,2.63
2022-12-29T12:43:50.871Z,2.63
2022-12-29T12:49:13.481Z,2.70
2022-12-29T12:54:14.886Z,3.90
2022-12-29T12:59:35.170Z,1.87
2022-12-29T13:05:04.404Z,3.10
2022-12-29T13:10:24.614Z,2.80
2022-12-29T13:15:48.064Z,2.03
2022-12-29T13:21:02.176Z,4.73
2022-12-29T13:26:15.160Z,1.63
2022-12-29T13:31:22.057Z,1.23
2022-12-29T13:36:49.494Z,1.27
2022-12-29T13:41:55.817Z,1.53
2022-12-29T13:47:00.392Z,4.83
2022-12-29T13:52:16.274Z,3.33
2022-12-29T13:57:28.127Z,1.57
2022-12-29T14:02:42.050Z,3.40
2022-12-29T14:07:43.808Z,4.43
2022-12-29T14:12:45.487Z,2.60
2022-12-29T14:18:02.917Z,2.57
2022-12-29T14:23:10.614Z,2.80
2022-12-29T14:28:25.591Z,1.37
2022-12-29T14:33:30.106Z,3.63
2022-12-29T14:38:31.736Z,1.53
2022-12-29T14:43:33.269Z,3.20
2022-12-29T14:48:38.550Z,2.47
2022-12-29T14:53:49.601Z,3.10
2022-12-29T14:58:53.332Z,4.13
2022-12-29T15:04:02.083Z,2.73
2022-12-29T15:09:15.660Z,1.67
2022-12-29T15:14:33.392Z,2.70
2022-12-29T15:19:34.920Z,3.57
2022-12-29T15:24:42.495Z,3.60
2022-12-29T15:29:45.913Z,5.50
2022-12-29T15:34:50.570Z,3.30
2022-12-29T15:39:55.266Z,2.80
2022-12-29T15:45:09.535Z,2.67
2022-12-29T15:50:38.232Z,2.63
2022-12-29T15:55:41.387Z,3.00
2022-12-29T16:00:48.688Z,2.10
2022-12-29T16:05:53.636Z,1.20
2022-12-29T16:10:57.199Z,3.47
2022-12-29T16:16:17.952Z,1.97
2022-12-29T16:21:27.097Z,3.77
2022-12-29T16:26:28.702Z,5.10
2022-12-29T16:31:36.319Z,4.70
2022-12-29T16:36:53.839Z,2.87
2022-12-29T16:41:56.156Z,2.70
2022-12-29T16:47:20.224Z,2.97
2022-12-29T16:52:34.595Z,2.80
2022-12-29T16:57:37.326Z,2.33
2022-12-29T17:02:46.888Z,3.30
2022-12-29T17:07:49.015Z,4.40
2022-12-29T17:12:50.573Z,2.27
2022-12-29T17:17:55.152Z,3.00
2022-12-29T17:22:57.875Z,6.30
2022-12-29T17:28:04.709Z,2.87
2022-12-29T17:33:09.955Z,6.27
2022-12-29T17:38:23.981Z,5.20
2022-12-29T17:43:27.213Z,6.83
2022-12-29T17:48:31.761Z,2.67
2022-12-29T17:53:33.251Z,4.70
2022-12-29T17:58:34.856Z,5.00
2022-12-29T18:03:38.376Z,3.73
2022-12-29T18:08:41.054Z,5.17
2022-12-29T18:13:46.724Z,3.40
2022-12-29T18:18:48.752Z,4.27
2022-12-29T18:23:50.531Z,4.93
2022-12-29T18:28:53.400Z,5.27
2022-12-29T18:33:58.965Z,5.07
2022-12-29T18:39:00.528Z,5.10
2022-12-29T18:44:02.039Z,5.60
2022-12-29T18:49:03.650Z,3.30
2022-12-29T18:54:05.172Z,4.77
2022-12-29T18:59:06.746Z,6.17
2022-12-29T19:04:12.243Z,5.17
2022-12-29T19:09:14.009Z,4.60
2022-12-29T19:14:17.164Z,4.13
2022-12-29T19:19:18.849Z,4.57
2022-12-29T19:24:20.331Z,4.70
2022-12-29T19:29:21.975Z,5.23
2022-12-29T19:34:23.477Z,3.90
2022-12-29T19:39:25.126Z,3.87
2022-12-29T19:44:26.610Z,6.83
2022-12-29T19:49:28.144Z,2.37
2022-12-29T19:54:29.665Z,6.20
2022-12-29T19:59:31.266Z,8.97
2022-12-29T20:04:34.033Z,8.10
2022-12-29T20:09:35.617Z,6.33
2022-12-29T20:14:40.832Z,6.37
2022-12-29T20:19:45.434Z,6.03
2022-12-29T20:24:50.171Z,7.10
2022-12-29T20:29:52.534Z,6.43
2022-12-29T20:34:54.153Z,2.67
2022-12-29T20:39:55.688Z,3.57
2022-12-29T20:44:57.209Z,2.60
2022-12-29T20:50:01.052Z,4.73
2022-12-29T20:55:02.828Z,3.63
2022-12-29T21:00:06.453Z,4.13
2022-12-29T21:05:25.271Z,3.23
2022-12-29T21:10:27.301Z,3.77
2022-12-29T21:15:29.947Z,3.70
2022-12-29T21:20:32.106Z,2.97
2022-12-29T21:25:37.246Z,4.10
2022-12-29T21:30:39.576Z,4.50
2022-12-29T21:35:41.834Z,3.53
2022-12-29T21:40:43.535Z,3.80
2022-12-29T21:45:49.999Z,4.70
2022-12-29T21:51:13.217Z,1.50
2022-12-29T21:56:19.027Z,3.77
2022-12-29T22:01:39.463Z,6.07
2022-12-29T22:06:59.544Z,4.00
2022-12-29T22:12:19.727Z,2.63
2022-12-29T22:17:23.837Z,6.40
2022-12-29T22:22:29.777Z,4.33
2022-12-29T22:27:31.386Z,8.17
2022-12-29T22:32:33.448Z,5.50
2022-12-29T22:37:35.704Z,5.17
2022-12-29T22:42:38.206Z,3.33
2022-12-29T22:47:40.394Z,4.47
2022-12-29T22:52:41.920Z,6.43
2022-12-29T22:57:43.553Z,3.20
2022-12-29T23:02:45.369Z,7.93
2022-12-29T23:07:47.134Z,4.57
2022-12-29T23:12:48.861Z,7.83
2022-12-29T23:17:50.360Z,4.50
2022-12-29T23:22:52.383Z,2.83
2022-12-29T23:27:53.956Z,4.20
2022-12-29T23:32:56.352Z,4.00
2022-12-29T23:37:58.716Z,2.33
2022-12-29T23:43:00.301Z,6.60
2022-12-29T23:48:01.843Z,5.10
2022-12-29T23:53:03.565Z,3.60
2022-12-29T23:58:05.134Z,4.60
